createdAt,value
2023-03-26T00:01:41.011Z,61.25
2023-03-26T00:04:08.696Z,61.43
2023-03-26T00:06:39.950Z,61.35
2023-03-26T00:09:09.970Z,61.35
2023-03-26T00:11:37.719Z,60.89
2023-03-26T00:14:05.911Z,61.36
2023-03-26T00:16:33.592Z,60.99
2023-03-26T00:19:02.008Z,61.63
2023-03-26T00:21:30.787Z,61.19
2023-03-26T00:24:01.308Z,61.21
2023-03-26T00:26:31.373Z,60.68
2023-03-26T00:29:00.555Z,61.60
2023-03-26T00:31:28.160Z,61.51
2023-03-26T00:33:57.025Z,61.48
2023-03-26T00:36:27.011Z,60.97
2023-03-26T00:38:55.623Z,61.07
2023-03-26T00:41:31.273Z,61.15
2023-03-26T00:44:00.690Z,61.30
2023-03-26T00:46:30.873Z,61.13
2023-03-26T00:49:02.007Z,60.60
2023-03-26T00:51:29.534Z,61.46
2023-03-26T00:53:58.359Z,61.56
2023-03-26T00:56:26.596Z,61.56
2023-03-26T00:58:53.879Z,62.14
2023-03-26T01:01:29.363Z,61.66
2023-03-26T01:04:08.059Z,61.46
2023-03-26T01:06:39.259Z,62.08
2023-03-26T01:09:19.154Z,61.90
2023-03-26T01:11:49.075Z,62.10
2023-03-26T01:14:27.126Z,61.95
2023-03-26T01:16:57.311Z,62.20
2023-03-26T01:20:05.901Z,62.60
2023-03-26T01:22:37.931Z,61.55
2023-03-26T01:25:05.762Z,62.21
2023-03-26T01:27:51.152Z,62.18
2023-03-26T01:30:24.052Z,62.08
2023-03-26T01:33:14.516Z,62.01
2023-03-26T01:35:58.499Z,62.24
2023-03-26T01:38:48.417Z,62.03
2023-03-26T01:41:42.783Z,61.79
2023-03-26T01:44:28.825Z,61.87
2023-03-26T01:46:58.470Z,62.40
2023-03-26T01:49:28.499Z,62.28
2023-03-26T01:51:58.218Z,61.79
2023-03-26T01:54:28.900Z,61.45
2023-03-26T01:57:06.862Z,61.27
2023-03-26T02:00:04.896Z,61.87
2023-03-26T02:03:05.287Z,61.37
2023-03-26T02:05:35.482Z,62.05
2023-03-26T02:08:23.590Z,61.29
2023-03-26T02:11:00.214Z,62.58
2023-03-26T02:13:28.191Z,62.99
2023-03-26T02:16:01.697Z,62.99
2023-03-26T02:18:39.380Z,62.99
2023-03-26T02:21:11.100Z,62.42
2023-03-26T02:23:47.220Z,62.61
2023-03-26T02:26:18.110Z,63.01
2023-03-26T02:29:13.702Z,63.07
2023-03-26T02:31:43.910Z,62.40
2023-03-26T02:34:11.557Z,62.82
2023-03-26T02:36:43.290Z,63.06
2023-03-26T02:39:11.595Z,62.79
2023-03-26T02:41:39.422Z,63.66
2023-03-26T02:44:09.927Z,63.50
2023-03-26T02:46:55.954Z,63.82
2023-03-26T02:49:42.077Z,63.43
2023-03-26T02:52:11.283Z,63.43
2023-03-26T02:54:38.905Z,64.02
2023-03-26T02:57:18.519Z,63.83
2023-03-26T02:59:50.645Z,64.25
2023-03-26T03:02:39.021Z,64.65
2023-03-26T03:05:31.797Z,64.06
2023-03-26T03:08:23.175Z,64.76
2023-03-26T03:11:25.074Z,64.09
2023-03-26T03:13:53.916Z,64.39
2023-03-26T03:16:28.023Z,64.66
2023-03-26T03:18:58.143Z,64.22
2023-03-26T03:21:46.397Z,64.50
2023-03-26T03:24:14.211Z,64.31
2023-03-26T03:26:46.548Z,64.53
2023-03-26T03:29:24.027Z,64.21
2023-03-26T03:31:51.699Z,64.33
2023-03-26T03:34:38.824Z,63.87
2023-03-26T03:37:07.119Z,63.89
2023-03-26T03:39:49.911Z,64.17
2023-03-26T03:42:20.571Z,63.90
2023-03-26T03:44:50.280Z,64.31
2023-03-26T03:47:50.060Z,64.40
2023-03-26T03:50:23.861Z,63.89
2023-03-26T03:53:06.724Z,64.06
2023-03-26T03:55:38.526Z,63.81
2023-03-26T03:58:06.387Z,63.56
2023-03-26T04:00:33.835Z,63.55
2023-03-26T04:03:33.380Z,63.46
2023-03-26T04:06:11.350Z,63.39
2023-03-26T04:08:39.780Z,62.90
2023-03-26T04:11:08.419Z,62.83
2023-03-26T04:13:59.658Z,62.60
2023-03-26T04:16:39.585Z,62.54
2023-03-26T04:19:07.060Z,62.14
2023-03-26T04:21:38.019Z,62.50
2023-03-26T04:24:07.507Z,62.71
2023-03-26T04:27:15.207Z,62.29
2023-03-26T04:29:45.975Z,61.86
2023-03-26T04:32:26.867Z,61.40
2023-03-26T04:34:56.547Z,61.23
2023-03-26T04:37:40.974Z,60.84
2023-03-26T04:40:17.925Z,60.28
2023-03-26T04:43:12.747Z,59.91
2023-03-26T04:46:03.722Z,59.42
2023-03-26T04:48:36.038Z,59.46
2023-03-26T04:51:03.599Z,59.15
2023-03-26T04:53:30.926Z,58.94
2023-03-26T04:56:58.314Z,58.17
2023-03-26T04:59:30.711Z,58.42
2023-03-26T05:02:00.456Z,58.12
2023-03-26T05:04:32.164Z,57.99
2023-03-26T05:06:59.973Z,57.42
2023-03-26T05:09:36.019Z,56.97
2023-03-26T05:12:17.579Z,56.72
2023-03-26T05:14:59.727Z,55.81
2023-03-26T05:17:46.765Z,55.59
2023-03-26T05:20:27.113Z,55.59
2023-03-26T05:22:54.744Z,54.13
2023-03-26T05:25:26.864Z,55.03
2023-03-26T05:27:55.558Z,54.63
2023-03-26T05:30:27.076Z,54.94
2023-03-26T05:32:59.314Z,54.51
2023-03-26T05:35:31.991Z,54.47
2023-03-26T05:37:59.521Z,54.57
2023-03-26T05:40:27.290Z,54.62
2023-03-26T05:43:00.325Z,54.67
2023-03-26T05:46:00.622Z,54.29
2023-03-26T05:48:31.688Z,54.24
2023-03-26T05:50:59.857Z,53.69
2023-03-26T05:53:29.734Z,53.68
2023-03-26T05:56:15.688Z,53.94
2023-03-26T05:59:01.771Z,53.14
2023-03-26T06:01:51.067Z,53.09
2023-03-26T06:04:41.444Z,52.61
2023-03-26T06:07:28.501Z,52.21
2023-03-26T06:10:09.788Z,51.80
2023-03-26T06:12:37.330Z,51.74
2023-03-26T06:15:06.346Z,51.31
2023-03-26T06:17:55.804Z,50.94
2023-03-26T06:20:59.028Z,50.40
2023-03-26T06:23:41.050Z,50.38
2023-03-26T06:26:27.121Z,50.04
2023-03-26T06:29:03.211Z,49.84
2023-03-26T06:31:52.308Z,49.44
2023-03-26T06:34:26.257Z,48.83
2023-03-26T06:36:54.195Z,48.47
2023-03-26T06:39:22.749Z,48.11
2023-03-26T06:42:13.426Z,47.78
2023-03-26T06:44:59.538Z,47.37
2023-03-26T06:47:36.049Z,46.98
2023-03-26T06:50:15.168Z,46.39
2023-03-26T06:53:01.248Z,46.24
2023-03-26T06:55:53.410Z,45.31
2023-03-26T06:58:39.504Z,44.97
2023-03-26T07:01:42.498Z,44.66
2023-03-26T07:04:39.061Z,44.12
2023-03-26T07:07:25.124Z,43.80
2023-03-26T07:10:11.113Z,43.07
2023-03-26T07:12:57.068Z,42.11
2023-03-26T07:15:59.964Z,42.71
2023-03-26T07:19:02.667Z,42.56
2023-03-26T07:21:35.399Z,42.16
2023-03-26T07:24:11.504Z,40.86
2023-03-26T07:27:40.591Z,41.06
2023-03-26T07:30:40.579Z,41.30
2023-03-26T07:33:35.962Z,40.52
2023-03-26T07:36:36.342Z,40.85
2023-03-26T07:39:44.428Z,40.29
2023-03-26T07:42:56.161Z,39.57
2023-03-26T07:45:45.562Z,39.65
2023-03-26T07:48:27.769Z,39.18
2023-03-26T07:51:12.554Z,39.04
2023-03-26T07:54:11.331Z,38.67
2023-03-26T07:56:58.884Z,37.91
2023-03-26T08:00:01.628Z,36.63
2023-03-26T08:03:13.721Z,35.92
2023-03-26T08:06:14.946Z,36.29
2023-03-26T08:09:32.320Z,36.62
2023-03-26T08:12:26.864Z,36.34
2023-03-26T08:15:08.393Z,36.49
2023-03-26T08:17:45.220Z,36.33
2023-03-26T08:20:38.523Z,35.72
2023-03-26T08:23:12.964Z,35.31
2023-03-26T08:25:54.004Z,35.32
2023-03-26T08:28:31.855Z,35.09
2023-03-26T08:31:03.157Z,34.53
2023-03-26T08:33:31.394Z,34.61
2023-03-26T08:35:58.784Z,33.35
2023-03-26T08:38:26.313Z,33.56
2023-03-26T08:41:12.052Z,32.88
2023-03-26T08:44:10.341Z,33.54
2023-03-26T08:47:08.575Z,33.23
2023-03-26T08:49:56.889Z,33.55
2023-03-26T08:52:39.367Z,33.35
2023-03-26T08:55:09.627Z,33.16
2023-03-26T08:57:57.669Z,33.20
2023-03-26T09:01:08.064Z,32.89
2023-03-26T09:03:53.704Z,31.85
2023-03-26T09:06:44.010Z,30.79
2023-03-26T09:09:34.881Z,30.23
2023-03-26T09:12:14.311Z,30.40
2023-03-26T09:15:16.716Z,29.80
2023-03-26T09:18:06.192Z,30.55
2023-03-26T09:20:49.116Z,30.44
2023-03-26T09:24:07.620Z,30.80
2023-03-26T09:27:00.821Z,29.97
2023-03-26T09:30:16.770Z,30.80
2023-03-26T09:32:56.408Z,30.36
2023-03-26T09:35:42.489Z,29.64
2023-03-26T09:38:38.410Z,30.17
2023-03-26T09:41:31.502Z,29.94
2023-03-26T09:43:58.637Z,29.85
2023-03-26T09:46:57.321Z,29.82
2023-03-26T09:49:39.888Z,29.96
2023-03-26T09:52:34.679Z,30.08
2023-03-26T09:56:04.532Z,29.66
2023-03-26T09:59:11.073Z,29.76
2023-03-26T10:01:51.916Z,28.94
2023-03-26T10:04:42.253Z,28.71
2023-03-26T10:07:30.407Z,28.96
2023-03-26T10:10:05.972Z,28.48
2023-03-26T10:12:48.288Z,28.05
2023-03-26T10:15:16.317Z,28.75
2023-03-26T10:17:49.057Z,28.65
2023-03-26T10:20:50.776Z,28.79
2023-03-26T10:23:48.528Z,28.91
2023-03-26T10:26:26.356Z,29.36
2023-03-26T10:29:11.934Z,28.44
2023-03-26T10:31:48.534Z,29.04
2023-03-26T10:34:29.335Z,29.12
2023-03-26T10:37:30.035Z,29.27
2023-03-26T10:40:15.729Z,28.67
2023-03-26T10:43:14.010Z,28.92
2023-03-26T10:45:50.141Z,29.20
2023-03-26T10:48:54.699Z,28.77
2023-03-26T10:51:36.959Z,28.93
2023-03-26T10:54:30.853Z,28.66
2023-03-26T10:57:00.897Z,28.63
2023-03-26T10:59:28.639Z,28.42
2023-03-26T11:02:16.032Z,28.68
2023-03-26T11:04:55.906Z,28.88
2023-03-26T11:07:28.564Z,29.25
2023-03-26T11:10:14.192Z,28.64
2023-03-26T11:13:09.371Z,28.71
2023-03-26T11:15:45.596Z,29.10
2023-03-26T11:18:19.296Z,28.89
2023-03-26T11:21:18.633Z,28.79
2023-03-26T11:24:06.635Z,27.99
2023-03-26T11:27:20.864Z,28.33
2023-03-26T11:30:06.427Z,28.66
2023-03-26T11:32:44.588Z,27.79
2023-03-26T11:35:41.683Z,28.05
2023-03-26T11:38:37.693Z,28.41
2023-03-26T11:41:16.946Z,27.77
2023-03-26T11:44:16.104Z,28.36
2023-03-26T11:46:47.174Z,28.31
2023-03-26T11:49:18.889Z,28.30
2023-03-26T11:51:49.018Z,28.11
2023-03-26T11:54:23.602Z,28.07
2023-03-26T11:57:04.524Z,28.51
2023-03-26T11:59:48.892Z,28.10
2023-03-26T12:02:29.898Z,27.34
2023-03-26T12:05:12.586Z,27.26
2023-03-26T12:07:53.775Z,26.96
2023-03-26T12:10:29.272Z,26.99
2023-03-26T12:13:03.417Z,26.60
2023-03-26T12:15:32.381Z,27.18
2023-03-26T12:18:21.033Z,27.03
2023-03-26T12:20:49.708Z,26.93
2023-03-26T12:23:39.327Z,26.23
2023-03-26T12:26:21.536Z,26.17
2023-03-26T12:28:51.374Z,26.80
2023-03-26T12:31:19.806Z,26.44
2023-03-26T12:34:16.530Z,26.59
2023-03-26T12:36:56.335Z,26.63
2023-03-26T12:40:09.700Z,26.38
2023-03-26T12:44:44.238Z,26.50
2023-03-26T12:45:28.220Z,26.69
2023-03-26T12:48:03.729Z,26.86
2023-03-26T12:50:55.196Z,26.43
2023-03-26T12:53:46.022Z,27.02
2023-03-26T12:56:38.750Z,26.99
2023-03-26T12:59:06.120Z,27.12
2023-03-26T13:01:36.586Z,27.36
2023-03-26T13:04:16.025Z,27.34
2023-03-26T13:07:01.034Z,27.35
2023-03-26T13:09:47.223Z,27.27
2023-03-26T13:12:29.839Z,27.55
2023-03-26T13:15:25.195Z,28.22
2023-03-26T13:18:07.875Z,27.81
2023-03-26T13:20:49.573Z,27.92
2023-03-26T13:23:43.062Z,28.26
2023-03-26T13:26:49.962Z,28.36
2023-03-26T13:29:40.844Z,28.56
2023-03-26T13:32:30.629Z,28.42
2023-03-26T13:35:24.593Z,28.41
2023-03-26T13:38:22.177Z,28.65
2023-03-26T13:41:26.979Z,28.87
2023-03-26T13:44:09.964Z,29.03
2023-03-26T13:46:43.495Z,28.83
2023-03-26T13:49:16.858Z,28.75
2023-03-26T13:52:10.280Z,28.16
2023-03-26T13:54:47.965Z,28.68
2023-03-26T13:57:39.682Z,28.71
2023-03-26T14:00:26.954Z,28.93
2023-03-26T14:03:04.369Z,29.36
2023-03-26T14:05:39.699Z,29.55
2023-03-26T14:08:27.291Z,30.20
2023-03-26T14:11:39.047Z,29.81
2023-03-26T14:14:36.408Z,29.94
2023-03-26T14:17:38.730Z,30.56
2023-03-26T14:20:15.139Z,30.23
2023-03-26T14:22:42.595Z,30.17
2023-03-26T14:25:25.980Z,30.22
2023-03-26T14:28:11.339Z,30.59
2023-03-26T14:30:57.667Z,31.24
2023-03-26T14:33:53.967Z,31.46
2023-03-26T14:36:21.431Z,31.56
2023-03-26T14:39:12.960Z,31.93
2023-03-26T14:41:51.430Z,32.24
2023-03-26T14:45:06.771Z,32.35
2023-03-26T14:47:42.072Z,32.30
2023-03-26T14:50:36.043Z,32.55
2023-03-26T14:53:19.073Z,32.78
2023-03-26T14:56:24.733Z,33.19
2023-03-26T14:59:22.542Z,33.24
2023-03-26T15:02:24.382Z,33.60
2023-03-26T15:04:54.916Z,33.32
2023-03-26T15:07:45.318Z,33.85
2023-03-26T15:10:31.074Z,34.05
2023-03-26T15:13:10.954Z,34.21
2023-03-26T15:16:02.474Z,34.54
2023-03-26T15:18:51.590Z,35.00
2023-03-26T15:21:52.925Z,35.07
2023-03-26T15:24:47.656Z,34.80
2023-03-26T15:27:29.998Z,35.14
2023-03-26T15:30:42.423Z,35.14
2023-03-26T15:33:36.126Z,35.71
2023-03-26T15:36:03.677Z,35.34
2023-03-26T15:39:00.492Z,36.03
2023-03-26T15:42:02.607Z,36.41
2023-03-26T15:44:53.116Z,36.00
2023-03-26T15:47:49.371Z,36.73
2023-03-26T15:50:27.302Z,36.93
2023-03-26T15:53:07.874Z,37.63
2023-03-26T15:55:40.870Z,38.03
2023-03-26T15:58:28.202Z,37.49
2023-03-26T16:01:19.187Z,38.41
2023-03-26T16:04:14.817Z,38.65
2023-03-26T16:06:55.955Z,38.77
2023-03-26T16:10:11.168Z,39.08
2023-03-26T16:13:16.779Z,38.84
2023-03-26T16:15:56.209Z,39.06
2023-03-26T16:18:33.045Z,38.88
2023-03-26T16:21:32.137Z,39.40
2023-03-26T16:24:02.973Z,39.21
2023-03-26T16:27:02.000Z,39.68
2023-03-26T16:29:30.814Z,39.63
2023-03-26T16:32:06.161Z,39.38
2023-03-26T16:34:42.994Z,39.81
2023-03-26T16:37:33.766Z,40.61
2023-03-26T16:40:22.775Z,41.21
2023-03-26T16:43:02.368Z,41.19
2023-03-26T16:45:43.232Z,40.74
2023-03-26T16:48:21.185Z,40.83
2023-03-26T16:50:49.728Z,40.88
2023-03-26T16:53:46.509Z,40.93
2023-03-26T16:56:13.865Z,40.75
2023-03-26T16:58:41.140Z,40.59
2023-03-26T17:01:22.252Z,40.57
2023-03-26T17:04:26.136Z,40.79
2023-03-26T17:07:09.558Z,41.31
2023-03-26T17:09:46.746Z,40.96
2023-03-26T17:12:24.114Z,41.72
2023-03-26T17:15:25.709Z,42.35
2023-03-26T17:18:17.856Z,42.63
2023-03-26T17:21:01.434Z,42.75
2023-03-26T17:24:15.142Z,44.42
2023-03-26T17:27:00.520Z,44.22
2023-03-26T17:30:04.234Z,44.84
2023-03-26T17:32:54.580Z,44.72
2023-03-26T17:35:45.776Z,45.71
2023-03-26T17:38:16.357Z,45.59
2023-03-26T17:40:58.873Z,46.43
2023-03-26T17:43:57.109Z,46.72
2023-03-26T17:46:45.082Z,46.29
2023-03-26T17:49:16.540Z,47.10
2023-03-26T17:51:52.943Z,47.66
2023-03-26T17:54:41.676Z,48.72
2023-03-26T17:57:15.155Z,48.53
2023-03-26T17:59:45.241Z,48.44
2023-03-26T18:02:18.876Z,49.00
2023-03-26T18:04:50.078Z,48.82
2023-03-26T18:07:39.187Z,49.54
2023-03-26T18:10:33.428Z,49.92
2023-03-26T18:13:25.233Z,49.96
2023-03-26T18:16:13.484Z,50.54
2023-03-26T18:18:58.095Z,50.15
2023-03-26T18:21:28.663Z,50.22
2023-03-26T18:23:59.545Z,50.57
2023-03-26T18:26:43.446Z,51.29
2023-03-26T18:29:27.277Z,50.81
2023-03-26T18:32:07.615Z,51.23
2023-03-26T18:34:37.264Z,51.14
2023-03-26T18:37:22.753Z,52.40
2023-03-26T18:40:12.955Z,53.25
2023-03-26T18:42:44.404Z,52.13
2023-03-26T18:45:38.379Z,52.82
2023-03-26T18:48:19.409Z,52.92
2023-03-26T18:50:52.124Z,52.96
2023-03-26T18:53:23.012Z,53.37
2023-03-26T18:55:51.760Z,54.39
2023-03-26T18:58:33.121Z,54.80
2023-03-26T19:01:04.171Z,54.90
2023-03-26T19:03:35.757Z,55.22
2023-03-26T19:06:08.477Z,55.74
2023-03-26T19:08:39.122Z,55.34
2023-03-26T19:11:09.044Z,55.84
2023-03-26T19:13:41.633Z,55.93
2023-03-26T19:16:23.056Z,56.38
2023-03-26T19:18:51.177Z,56.33
2023-03-26T19:21:20.405Z,56.37
2023-03-26T19:23:48.200Z,56.66
2023-03-26T19:26:16.273Z,56.29
2023-03-26T19:28:51.688Z,56.76
2023-03-26T19:31:34.271Z,57.35
2023-03-26T19:34:41.260Z,59.20
2023-03-26T19:37:22.244Z,58.66
2023-03-26T19:39:49.611Z,57.98
2023-03-26T19:42:26.541Z,58.74
2023-03-26T19:44:55.191Z,59.49
2023-03-26T19:47:52.079Z,59.54
2023-03-26T19:50:28.653Z,60.13
2023-03-26T19:53:24.477Z,60.43
2023-03-26T19:55:59.397Z,60.34
2023-03-26T19:58:27.663Z,59.59
2023-03-26T20:00:56.666Z,59.35
2023-03-26T20:03:41.901Z,60.05
2023-03-26T20:06:15.165Z,59.84
2023-03-26T20:08:43.046Z,59.50
2023-03-26T20:11:14.809Z,60.42
2023-03-26T20:13:42.122Z,60.42
2023-03-26T20:16:27.779Z,61.25
2023-03-26T20:19:02.546Z,61.28
2023-03-26T20:21:32.596Z,61.77
2023-03-26T20:23:59.962Z,61.63
2023-03-26T20:26:27.513Z,62.82
2023-03-26T20:28:54.904Z,62.10
2023-03-26T20:31:28.779Z,62.52
2023-03-26T20:33:57.818Z,62.33
2023-03-26T20:36:33.670Z,63.20
2023-03-26T20:39:06.279Z,64.08
2023-03-26T20:41:36.085Z,63.59
2023-03-26T20:44:03.972Z,64.36
2023-03-26T20:46:33.475Z,64.74
2023-03-26T20:49:01.043Z,63.66
2023-03-26T20:51:29.077Z,63.67
2023-03-26T20:53:56.640Z,64.40
2023-03-26T20:56:24.066Z,64.49
2023-03-26T20:59:09.980Z,64.88
2023-03-26T21:01:38.857Z,65.81
2023-03-26T21:04:07.565Z,64.60
2023-03-26T21:06:35.136Z,65.59
2023-03-26T21:09:02.662Z,64.45
2023-03-26T21:11:46.126Z,65.59
2023-03-26T21:14:23.327Z,65.35
2023-03-26T21:16:51.931Z,65.52
2023-03-26T21:19:20.516Z,66.34
2023-03-26T21:22:05.155Z,66.36
2023-03-26T21:24:45.303Z,65.69
2023-03-26T21:27:26.468Z,66.03
2023-03-26T21:29:55.605Z,65.77
2023-03-26T21:32:23.762Z,65.75
2023-03-26T21:34:58.525Z,65.90
2023-03-26T21:37:27.330Z,66.62
2023-03-26T21:39:54.694Z,67.17
2023-03-26T21:42:22.398Z,66.51
2023-03-26T21:44:50.031Z,66.25
2023-03-26T21:47:17.951Z,66.23
2023-03-26T21:49:45.794Z,66.33
2023-03-26T21:52:15.280Z,65.80
2023-03-26T21:54:43.483Z,66.01
2023-03-26T21:57:31.416Z,66.12
2023-03-26T22:00:18.846Z,66.08
2023-03-26T22:03:11.577Z,65.78
2023-03-26T22:05:43.345Z,65.81
2023-03-26T22:08:30.571Z,66.23
2023-03-26T22:10:58.157Z,65.71
2023-03-26T22:13:25.868Z,66.15
2023-03-26T22:15:53.860Z,65.93
2023-03-26T22:18:21.962Z,65.82
2023-03-26T22:20:49.923Z,65.29
2023-03-26T22:23:18.610Z,65.75
2023-03-26T22:25:46.569Z,65.73
2023-03-26T22:28:14.156Z,64.98
2023-03-26T22:30:42.230Z,64.55
2023-03-26T22:33:12.898Z,64.61
2023-03-26T22:35:43.094Z,64.26
2023-03-26T22:38:11.982Z,64.57
2023-03-26T22:40:39.649Z,64.69
2023-03-26T22:43:09.609Z,64.85
2023-03-26T22:45:38.038Z,64.82
2023-03-26T22:48:05.618Z,64.72
2023-03-26T22:50:33.402Z,64.82
2023-03-26T22:53:00.876Z,64.72
2023-03-26T22:55:29.720Z,64.39
2023-03-26T22:57:57.936Z,64.77
2023-03-26T23:00:26.780Z,64.87
2023-03-26T23:03:00.790Z,64.92
2023-03-26T23:05:28.876Z,64.91
2023-03-26T23:07:57.388Z,64.82
2023-03-26T23:10:24.820Z,64.70
2023-03-26T23:12:53.078Z,64.70
2023-03-26T23:15:20.916Z,65.08
2023-03-26T23:17:54.505Z,65.08
2023-03-26T23:20:22.696Z,65.10
2023-03-26T23:22:50.155Z,65.38
2023-03-26T23:25:17.650Z,65.82
2023-03-26T23:27:45.057Z,65.54
2023-03-26T23:30:13.656Z,65.22
2023-03-26T23:32:41.803Z,65.71
2023-03-26T23:35:09.786Z,66.09
2023-03-26T23:37:37.201Z,66.36
2023-03-26T23:40:10.361Z,66.61
2023-03-26T23:42:39.517Z,66.83
2023-03-26T23:45:08.761Z,67.43
2023-03-26T23:47:36.231Z,67.32
2023-03-26T23:50:05.390Z,67.44
2023-03-26T23:52:32.914Z,67.40
2023-03-26T23:55:00.249Z,67.31
2023-03-26T23:57:27.756Z,67.40
2023-03-26T23:59:55.947Z,67.57
